sensor_id;sensor_type;location;lat;lon;timestamp;P1;durP1;ratioP1;P2;durP2;ratioP2
20623;SDS011;10471;42.736;23.346;2022-07-05T00:01:57;3.80;;;3.10;;
20623;SDS011;10471;42.736;23.346;2022-07-05T00:04:23;3.80;;;3.20;;
20623;SDS011;10471;42.736;23.346;2022-07-05T00:06:48;6.57;;;3.40;;
20623;SDS011;10471;42.736;23.346;2022-07-05T00:09:32;4.70;;;3.30;;
20623;SDS011;10471;42.736;23.346;2022-07-05T00:11:58;6.60;;;3.27;;
20623;SDS011;10471;42.736;23.346;2022-07-05T00:14:23;3.73;;;2.90;;
20623;SDS011;10471;42.736;23.346;2022-07-05T00:16:49;4.37;;;2.87;;
20623;SDS011;10471;42.736;23.346;2022-07-05T00:19:14;5.90;;;2.93;;
20623;SDS011;10471;42.736;23.346;2022-07-05T00:21:40;5.57;;;3.20;;
20623;SDS011;10471;42.736;23.346;2022-07-05T00:24:05;7.43;;;3.00;;
20623;SDS011;10471;42.736;23.346;2022-07-05T00:26:31;5.73;;;3.20;;
20623;SDS011;10471;42.736;23.346;2022-07-05T00:28:56;4.43;;;3.20;;
20623;SDS011;10471;42.736;23.346;2022-07-05T00:31:22;3.47;;;2.70;;
20623;SDS011;10471;42.736;23.346;2022-07-05T00:33:47;5.37;;;3.20;;
20623;SDS011;10471;42.736;23.346;2022-07-05T00:36:12;5.87;;;3.23;;
20623;SDS011;10471;42.736;23.346;2022-07-05T00:38:38;6.03;;;2.93;;
20623;SDS011;10471;42.736;23.346;2022-07-05T00:41:03;3.97;;;2.93;;
20623;SDS011;10471;42.736;23.346;2022-07-05T00:43:28;4.70;;;3.00;;
20623;SDS011;10471;42.736;23.346;2022-07-05T00:45:54;3.87;;;3.20;;
20623;SDS011;10471;42.736;23.346;2022-07-05T00:48:19;6.80;;;3.10;;
20623;SDS011;10471;42.736;23.346;2022-07-05T00:50:45;3.33;;;2.83;;
20623;SDS011;10471;42.736;23.346;2022-07-05T00:53:10;7.47;;;3.30;;
20623;SDS011;10471;42.736;23.346;2022-07-05T00:55:36;4.93;;;3.10;;
20623;SDS011;10471;42.736;23.346;2022-07-05T00:58:02;4.10;;;2.97;;
20623;SDS011;10471;42.736;23.346;2022-07-05T01:00:27;4.20;;;2.80;;
20623;SDS011;10471;42.736;23.346;2022-07-05T01:02:53;3.73;;;3.20;;
20623;SDS011;10471;42.736;23.346;2022-07-05T01:05:18;5.97;;;3.70;;
20623;SDS011;10471;42.736;23.346;2022-07-05T01:07:44;9.30;;;3.80;;
20623;SDS011;10471;42.736;23.346;2022-07-05T01:10:10;10.17;;;3.70;;
20623;SDS011;10471;42.736;23.346;2022-07-05T01:12:39;8.53;;;3.70;;
20623;SDS011;10471;42.736;23.346;2022-07-05T01:15:06;4.57;;;3.47;;
20623;SDS011;10471;42.736;23.346;2022-07-05T01:17:33;6.63;;;3.67;;
20623;SDS011;10471;42.736;23.346;2022-07-05T01:20:00;9.03;;;3.33;;
20623;SDS011;10471;42.736;23.346;2022-07-05T01:22:26;7.93;;;3.40;;
20623;SDS011;10471;42.736;23.346;2022-07-05T01:24:52;5.37;;;3.43;;
20623;SDS011;10471;42.736;23.346;2022-07-05T01:27:18;4.60;;;2.77;;
20623;SDS011;10471;42.736;23.346;2022-07-05T01:29:44;4.70;;;3.40;;
20623;SDS011;10471;42.736;23.346;2022-07-05T01:32:10;8.10;;;3.30;;
20623;SDS011;10471;42.736;23.346;2022-07-05T01:34:39;7.23;;;3.60;;
20623;SDS011;10471;42.736;23.346;2022-07-05T01:37:05;5.13;;;3.33;;
20623;SDS011;10471;42.736;23.346;2022-07-05T01:39:31;4.43;;;3.70;;
20623;SDS011;10471;42.736;23.346;2022-07-05T01:41:57;4.83;;;3.43;;
20623;SDS011;10471;42.736;23.346;2022-07-05T01:44:22;6.43;;;3.80;;
20623;SDS011;10471;42.736;23.346;2022-07-05T01:46:48;4.27;;;3.40;;
20623;SDS011;10471;42.736;23.346;2022-07-05T01:49:19;4.93;;;3.33;;
20623;SDS011;10471;42.736;23.346;2022-07-05T01:51:57;6.77;;;3.50;;
20623;SDS011;10471;42.736;23.346;2022-07-05T01:54:26;5.93;;;3.70;;
20623;SDS011;10471;42.736;23.346;2022-07-05T01:56:52;5.43;;;4.20;;
20623;SDS011;10471;42.736;23.346;2022-07-05T01:59:18;5.83;;;3.50;;
20623;SDS011;10471;42.736;23.346;2022-07-05T02:01:43;6.90;;;4.70;;
20623;SDS011;10471;42.736;23.346;2022-07-05T02:04:09;6.97;;;4.20;;
20623;SDS011;10471;42.736;23.346;2022-07-05T02:06:36;5.43;;;3.70;;
20623;SDS011;10471;42.736;23.346;2022-07-05T02:09:02;6.53;;;3.90;;
20623;SDS011;10471;42.736;23.346;2022-07-05T02:11:29;6.23;;;3.83;;
20623;SDS011;10471;42.736;23.346;2022-07-05T02:13:55;4.67;;;3.73;;
20623;SDS011;10471;42.736;23.346;2022-07-05T02:16:23;5.53;;;3.80;;
20623;SDS011;10471;42.736;23.346;2022-07-05T02:18:49;6.00;;;3.43;;
20623;SDS011;10471;42.736;23.346;2022-07-05T02:21:14;5.33;;;3.80;;
20623;SDS011;10471;42.736;23.346;2022-07-05T02:23:40;7.67;;;4.10;;
20623;SDS011;10471;42.736;23.346;2022-07-05T02:26:05;10.00;;;5.07;;
20623;SDS011;10471;42.736;23.346;2022-07-05T02:28:30;8.23;;;5.40;;
20623;SDS011;10471;42.736;23.346;2022-07-05T02:30:56;7.90;;;5.53;;
20623;SDS011;10471;42.736;23.346;2022-07-05T02:33:21;9.17;;;5.07;;
20623;SDS011;10471;42.736;23.346;2022-07-05T02:35:47;10.03;;;5.60;;
20623;SDS011;10471;42.736;23.346;2022-07-05T02:38:12;10.57;;;6.20;;
20623;SDS011;10471;42.736;23.346;2022-07-05T02:40:37;15.20;;;6.03;;
20623;SDS011;10471;42.736;23.346;2022-07-05T02:43:03;11.67;;;5.17;;
20623;SDS011;10471;42.736;23.346;2022-07-05T02:45:28;9.03;;;4.83;;
20623;SDS011;10471;42.736;23.346;2022-07-05T02:47:53;7.73;;;5.07;;
20623;SDS011;10471;42.736;23.346;2022-07-05T02:50:19;10.63;;;5.33;;
20623;SDS011;10471;42.736;23.346;2022-07-05T02:52:45;10.63;;;5.07;;
20623;SDS011;10471;42.736;23.346;2022-07-05T02:55:10;8.77;;;4.83;;
20623;SDS011;10471;42.736;23.346;2022-07-05T02:57:38;11.17;;;4.93;;
20623;SDS011;10471;42.736;23.346;2022-07-05T03:00:04;10.87;;;5.00;;
20623;SDS011;10471;42.736;23.346;2022-07-05T03:02:30;10.03;;;5.60;;
20623;SDS011;10471;42.736;23.346;2022-07-05T03:04:56;8.10;;;4.67;;
20623;SDS011;10471;42.736;23.346;2022-07-05T03:07:21;9.90;;;5.10;;
20623;SDS011;10471;42.736;23.346;2022-07-05T03:09:46;9.23;;;4.50;;
20623;SDS011;10471;42.736;23.346;2022-07-05T03:12:12;7.63;;;4.60;;
20623;SDS011;10471;42.736;23.346;2022-07-05T03:14:37;8.60;;;4.23;;
20623;SDS011;10471;42.736;23.346;2022-07-05T03:17:03;9.87;;;4.63;;
20623;SDS011;10471;42.736;23.346;2022-07-05T03:19:28;5.77;;;3.70;;
20623;SDS011;10471;42.736;23.346;2022-07-05T03:21:54;10.33;;;4.37;;
20623;SDS011;10471;42.736;23.346;2022-07-05T03:24:19;8.83;;;4.47;;
20623;SDS011;10471;42.736;23.346;2022-07-05T03:26:45;5.53;;;4.93;;
20623;SDS011;10471;42.736;23.346;2022-07-05T03:29:10;6.13;;;4.70;;
20623;SDS011;10471;42.736;23.346;2022-07-05T03:31:35;7.10;;;4.80;;
20623;SDS011;10471;42.736;23.346;2022-07-05T03:34:01;13.17;;;5.33;;
20623;SDS011;10471;42.736;23.346;2022-07-05T03:36:26;6.77;;;4.77;;
20623;SDS011;10471;42.736;23.346;2022-07-05T03:38:52;9.97;;;5.90;;
20623;SDS011;10471;42.736;23.346;2022-07-05T03:41:17;13.33;;;5.70;;
20623;SDS011;10471;42.736;23.346;2022-07-05T03:43:43;14.13;;;5.50;;
20623;SDS011;10471;42.736;23.346;2022-07-05T03:46:08;9.00;;;5.90;;
20623;SDS011;10471;42.736;23.346;2022-07-05T03:48:34;14.93;;;6.70;;
20623;SDS011;10471;42.736;23.346;2022-07-05T03:50:59;12.63;;;6.83;;
20623;SDS011;10471;42.736;23.346;2022-07-05T03:53:25;9.03;;;5.80;;
20623;SDS011;10471;42.736;23.346;2022-07-05T03:55:50;12.13;;;6.10;;
20623;SDS011;10471;42.736;23.346;2022-07-05T03:58:16;12.73;;;6.77;;
20623;SDS011;10471;42.736;23.346;2022-07-05T04:00:41;11.80;;;6.40;;
20623;SDS011;10471;42.736;23.346;2022-07-05T04:03:07;12.33;;;6.80;;
20623;SDS011;10471;42.736;23.346;2022-07-05T04:05:32;11.67;;;6.40;;
20623;SDS011;10471;42.736;23.346;2022-07-05T04:07:57;13.40;;;7.17;;
20623;SDS011;10471;42.736;23.346;2022-07-05T04:10:23;9.37;;;7.10;;
20623;SDS011;10471;42.736;23.346;2022-07-05T04:12:49;11.40;;;6.80;;
20623;SDS011;10471;42.736;23.346;2022-07-05T04:15:15;13.60;;;7.47;;
20623;SDS011;10471;42.736;23.346;2022-07-05T04:20:18;12.10;;;8.10;;
20623;SDS011;10471;42.736;23.346;2022-07-05T04:22:46;10.70;;;8.27;;
20623;SDS011;10471;42.736;23.346;2022-07-05T04:25:11;16.53;;;8.60;;
20623;SDS011;10471;42.736;23.346;2022-07-05T04:27:47;9.27;;;8.20;;
20623;SDS011;10471;42.736;23.346;2022-07-05T04:30:15;12.13;;;8.33;;
20623;SDS011;10471;42.736;23.346;2022-07-05T04:32:42;11.90;;;8.40;;
20623;SDS011;10471;42.736;23.346;2022-07-05T04:35:08;12.10;;;9.50;;
20623;SDS011;10471;42.736;23.346;2022-07-05T04:37:33;15.27;;;9.70;;
20623;SDS011;10471;42.736;23.346;2022-07-05T04:39:59;14.07;;;8.63;;
20623;SDS011;10471;42.736;23.346;2022-07-05T04:42:25;13.27;;;9.73;;
20623;SDS011;10471;42.736;23.346;2022-07-05T04:44:50;10.20;;;8.77;;
20623;SDS011;10471;42.736;23.346;2022-07-05T04:47:16;11.33;;;9.30;;
20623;SDS011;10471;42.736;23.346;2022-07-05T04:49:41;13.73;;;9.07;;
20623;SDS011;10471;42.736;23.346;2022-07-05T04:52:07;10.73;;;7.07;;
20623;SDS011;10471;42.736;23.346;2022-07-05T04:54:32;10.70;;;7.33;;
20623;SDS011;10471;42.736;23.346;2022-07-05T04:56:57;8.30;;;6.07;;
20623;SDS011;10471;42.736;23.346;2022-07-05T04:59:23;7.57;;;6.50;;
20623;SDS011;10471;42.736;23.346;2022-07-05T05:01:48;9.83;;;6.70;;
20623;SDS011;10471;42.736;23.346;2022-07-05T05:04:14;11.33;;;6.27;;
20623;SDS011;10471;42.736;23.346;2022-07-05T05:06:39;9.50;;;5.43;;
20623;SDS011;10471;42.736;23.346;2022-07-05T05:09:04;6.03;;;4.70;;
20623;SDS011;10471;42.736;23.346;2022-07-05T05:11:30;6.63;;;4.03;;
20623;SDS011;10471;42.736;23.346;2022-07-05T05:13:55;5.13;;;4.20;;
20623;SDS011;10471;42.736;23.346;2022-07-05T05:16:20;6.47;;;4.67;;
20623;SDS011;10471;42.736;23.346;2022-07-05T05:18:46;6.57;;;4.53;;
20623;SDS011;10471;42.736;23.346;2022-07-05T05:21:11;5.57;;;4.23;;
20623;SDS011;10471;42.736;23.346;2022-07-05T05:23:37;7.80;;;3.80;;
20623;SDS011;10471;42.736;23.346;2022-07-05T05:26:02;5.67;;;3.70;;
20623;SDS011;10471;42.736;23.346;2022-07-05T05:28:27;7.17;;;4.10;;
20623;SDS011;10471;42.736;23.346;2022-07-05T05:30:53;6.47;;;3.67;;
20623;SDS011;10471;42.736;23.346;2022-07-05T05:33:18;11.27;;;4.00;;
20623;SDS011;10471;42.736;23.346;2022-07-05T05:35:44;7.10;;;4.00;;
20623;SDS011;10471;42.736;23.346;2022-07-05T05:38:09;4.60;;;3.80;;
20623;SDS011;10471;42.736;23.346;2022-07-05T05:40:35;8.43;;;3.93;;
20623;SDS011;10471;42.736;23.346;2022-07-05T05:43:02;7.57;;;4.20;;
20623;SDS011;10471;42.736;23.346;2022-07-05T05:45:28;5.87;;;3.73;;
20623;SDS011;10471;42.736;23.346;2022-07-05T05:47:57;7.70;;;3.60;;
20623;SDS011;10471;42.736;23.346;2022-07-05T05:50:25;5.73;;;3.67;;
20623;SDS011;10471;42.736;23.346;2022-07-05T05:52:56;7.63;;;3.83;;
20623;SDS011;10471;42.736;23.346;2022-07-05T05:55:23;6.80;;;3.77;;
20623;SDS011;10471;42.736;23.346;2022-07-05T05:57:50;6.53;;;3.90;;
20623;SDS011;10471;42.736;23.346;2022-07-05T06:00:16;8.20;;;4.27;;
20623;SDS011;10471;42.736;23.346;2022-07-05T06:02:43;7.17;;;4.60;;
20623;SDS011;10471;42.736;23.346;2022-07-05T06:05:09;8.80;;;3.97;;
20623;SDS011;10471;42.736;23.346;2022-07-05T06:07:51;8.83;;;3.90;;
20623;SDS011;10471;42.736;23.346;2022-07-05T06:12:46;10.03;;;4.10;;
20623;SDS011;10471;42.736;23.346;2022-07-05T06:15:13;7.73;;;4.00;;
20623;SDS011;10471;42.736;23.346;2022-07-05T06:17:38;8.73;;;4.03;;
20623;SDS011;10471;42.736;23.346;2022-07-05T06:20:07;10.53;;;3.73;;
20623;SDS011;10471;42.736;23.346;2022-07-05T06:22:37;12.77;;;4.03;;
20623;SDS011;10471;42.736;23.346;2022-07-05T06:25:03;8.37;;;3.70;;
20623;SDS011;10471;42.736;23.346;2022-07-05T06:27:29;8.13;;;4.10;;
20623;SDS011;10471;42.736;23.346;2022-07-05T06:29:54;8.47;;;4.10;;
20623;SDS011;10471;42.736;23.346;2022-07-05T06:32:20;5.67;;;4.03;;
20623;SDS011;10471;42.736;23.346;2022-07-05T06:34:45;11.03;;;4.00;;
20623;SDS011;10471;42.736;23.346;2022-07-05T06:37:11;6.07;;;3.50;;
20623;SDS011;10471;42.736;23.346;2022-07-05T06:39:37;9.07;;;3.50;;
20623;SDS011;10471;42.736;23.346;2022-07-05T06:42:02;7.47;;;3.80;;
20623;SDS011;10471;42.736;23.346;2022-07-05T06:44:29;5.07;;;3.63;;
20623;SDS011;10471;42.736;23.346;2022-07-05T06:46:54;5.10;;;3.53;;
20623;SDS011;10471;42.736;23.346;2022-07-05T06:49:20;9.30;;;3.80;;
20623;SDS011;10471;42.736;23.346;2022-07-05T06:51:45;7.27;;;3.70;;
20623;SDS011;10471;42.736;23.346;2022-07-05T06:54:10;6.70;;;3.63;;
20623;SDS011;10471;42.736;23.346;2022-07-05T06:56:36;13.00;;;4.10;;
20623;SDS011;10471;42.736;23.346;2022-07-05T06:59:01;7.93;;;3.70;;
20623;SDS011;10471;42.736;23.346;2022-07-05T07:01:27;8.17;;;3.70;;
20623;SDS011;10471;42.736;23.346;2022-07-05T07:03:53;6.90;;;3.60;;
20623;SDS011;10471;42.736;23.346;2022-07-05T07:06:18;7.83;;;3.90;;
20623;SDS011;10471;42.736;23.346;2022-07-05T07:08:44;5.80;;;3.47;;
20623;SDS011;10471;42.736;23.346;2022-07-05T07:11:28;4.00;;;3.50;;
20623;SDS011;10471;42.736;23.346;2022-07-05T07:13:54;8.80;;;4.03;;
20623;SDS011;10471;42.736;23.346;2022-07-05T07:16:19;9.83;;;4.00;;
20623;SDS011;10471;42.736;23.346;2022-07-05T07:18:45;8.77;;;3.60;;
20623;SDS011;10471;42.736;23.346;2022-07-05T07:21:10;13.60;;;3.70;;
20623;SDS011;10471;42.736;23.346;2022-07-05T07:23:35;13.60;;;4.40;;
20623;SDS011;10471;42.736;23.346;2022-07-05T07:26:01;9.03;;;3.60;;
20623;SDS011;10471;42.736;23.346;2022-07-05T07:28:27;8.13;;;3.30;;
20623;SDS011;10471;42.736;23.346;2022-07-05T07:30:53;8.90;;;3.40;;
20623;SDS011;10471;42.736;23.346;2022-07-05T07:33:19;6.40;;;3.57;;
20623;SDS011;10471;42.736;23.346;2022-07-05T07:35:44;6.30;;;3.17;;
20623;SDS011;10471;42.736;23.346;2022-07-05T07:38:10;8.00;;;3.40;;
20623;SDS011;10471;42.736;23.346;2022-07-05T07:40:35;11.57;;;3.57;;
20623;SDS011;10471;42.736;23.346;2022-07-05T07:43:00;10.30;;;3.30;;
20623;SDS011;10471;42.736;23.346;2022-07-05T07:45:26;7.03;;;3.47;;
20623;SDS011;10471;42.736;23.346;2022-07-05T07:47:53;8.43;;;3.27;;
20623;SDS011;10471;42.736;23.346;2022-07-05T07:50:18;8.23;;;3.90;;
20623;SDS011;10471;42.736;23.346;2022-07-05T07:52:44;5.37;;;3.20;;
20623;SDS011;10471;42.736;23.346;2022-07-05T07:55:09;9.10;;;3.17;;
20623;SDS011;10471;42.736;23.346;2022-07-05T07:57:35;5.10;;;3.40;;
20623;SDS011;10471;42.736;23.346;2022-07-05T08:00:01;7.20;;;3.33;;
20623;SDS011;10471;42.736;23.346;2022-07-05T08:02:27;10.30;;;3.20;;
20623;SDS011;10471;42.736;23.346;2022-07-05T08:04:52;5.37;;;3.43;;
20623;SDS011;10471;42.736;23.346;2022-07-05T08:07:18;8.60;;;3.83;;
20623;SDS011;10471;42.736;23.346;2022-07-05T08:09:44;9.20;;;4.17;;
20623;SDS011;10471;42.736;23.346;2022-07-05T08:12:10;6.70;;;3.80;;
20623;SDS011;10471;42.736;23.346;2022-07-05T08:14:35;7.83;;;3.30;;
20623;SDS011;10471;42.736;23.346;2022-07-05T08:17:01;7.37;;;3.63;;
20623;SDS011;10471;42.736;23.346;2022-07-05T08:19:26;6.73;;;3.50;;
20623;SDS011;10471;42.736;23.346;2022-07-05T08:22:10;5.17;;;3.70;;
20623;SDS011;10471;42.736;23.346;2022-07-05T08:24:36;12.57;;;3.93;;
20623;SDS011;10471;42.736;23.346;2022-07-05T08:27:04;6.83;;;3.53;;
20623;SDS011;10471;42.736;23.346;2022-07-05T08:29:30;7.77;;;3.80;;
20623;SDS011;10471;42.736;23.346;2022-07-05T08:31:55;7.27;;;3.70;;
20623;SDS011;10471;42.736;23.346;2022-07-05T08:34:21;10.00;;;4.27;;
20623;SDS011;10471;42.736;23.346;2022-07-05T08:36:46;6.90;;;3.97;;
20623;SDS011;10471;42.736;23.346;2022-07-05T08:39:13;9.87;;;4.07;;
20623;SDS011;10471;42.736;23.346;2022-07-05T08:41:40;7.43;;;4.07;;
20623;SDS011;10471;42.736;23.346;2022-07-05T08:44:06;5.47;;;3.70;;
20623;SDS011;10471;42.736;23.346;2022-07-05T08:46:33;15.77;;;4.37;;
20623;SDS011;10471;42.736;23.346;2022-07-05T08:49:02;8.50;;;4.10;;
20623;SDS011;10471;42.736;23.346;2022-07-05T08:51:30;10.23;;;4.30;;
20623;SDS011;10471;42.736;23.346;2022-07-05T08:53:59;11.80;;;4.63;;
20623;SDS011;10471;42.736;23.346;2022-07-05T08:56:25;9.80;;;4.17;;
20623;SDS011;10471;42.736;23.346;2022-07-05T08:58:50;12.77;;;5.00;;
20623;SDS011;10471;42.736;23.346;2022-07-05T09:01:16;6.40;;;4.20;;
20623;SDS011;10471;42.736;23.346;2022-07-05T09:03:48;7.17;;;4.03;;
20623;SDS011;10471;42.736;23.346;2022-07-05T09:06:16;7.63;;;4.07;;
20623;SDS011;10471;42.736;23.346;2022-07-05T09:08:44;8.17;;;4.20;;
20623;SDS011;10471;42.736;23.346;2022-07-05T09:11:11;9.53;;;4.30;;
20623;SDS011;10471;42.736;23.346;2022-07-05T09:13:41;9.10;;;3.93;;
20623;SDS011;10471;42.736;23.346;2022-07-05T09:16:08;7.23;;;4.13;;
20623;SDS011;10471;42.736;23.346;2022-07-05T09:18:44;11.70;;;4.70;;
20623;SDS011;10471;42.736;23.346;2022-07-05T09:21:19;8.80;;;4.63;;
20623;SDS011;10471;42.736;23.346;2022-07-05T09:23:55;8.43;;;4.43;;
20623;SDS011;10471;42.736;23.346;2022-07-05T09:26:43;9.13;;;4.63;;
20623;SDS011;10471;42.736;23.346;2022-07-05T09:29:11;8.30;;;4.07;;
20623;SDS011;10471;42.736;23.346;2022-07-05T09:31:39;10.57;;;4.43;;
20623;SDS011;10471;42.736;23.346;2022-07-05T09:34:11;11.03;;;4.50;;
20623;SDS011;10471;42.736;23.346;2022-07-05T09:36:47;8.43;;;4.23;;
20623;SDS011;10471;42.736;23.346;2022-07-05T09:39:16;11.37;;;4.67;;
20623;SDS011;10471;42.736;23.346;2022-07-05T09:42:21;10.57;;;4.63;;
20623;SDS011;10471;42.736;23.346;2022-07-05T09:47:21;9.57;;;5.47;;
20623;SDS011;10471;42.736;23.346;2022-07-05T09:49:48;7.97;;;4.87;;
20623;SDS011;10471;42.736;23.346;2022-07-05T09:52:33;7.82;;;4.95;;
20623;SDS011;10471;42.736;23.346;2022-07-05T09:55:04;9.35;;;4.70;;
20623;SDS011;10471;42.736;23.346;2022-07-05T09:57:37;9.70;;;5.20;;
20623;SDS011;10471;42.736;23.346;2022-07-05T10:00:11;7.57;;;4.65;;
20623;SDS011;10471;42.736;23.346;2022-07-05T10:02:40;8.65;;;5.10;;
20623;SDS011;10471;42.736;23.346;2022-07-05T10:05:13;9.98;;;5.07;;
20623;SDS011;10471;42.736;23.346;2022-07-05T10:07:40;8.88;;;4.85;;
20623;SDS011;10471;42.736;23.346;2022-07-05T10:10:09;9.48;;;4.85;;
20623;SDS011;10471;42.736;23.346;2022-07-05T10:12:36;8.43;;;4.95;;
20623;SDS011;10471;42.736;23.346;2022-07-05T10:15:03;6.28;;;5.10;;
20623;SDS011;10471;42.736;23.346;2022-07-05T10:17:30;8.70;;;5.43;;
20623;SDS011;10471;42.736;23.346;2022-07-05T10:20:00;8.52;;;5.10;;
20623;SDS011;10471;42.736;23.346;2022-07-05T10:22:28;7.95;;;5.30;;
20623;SDS011;10471;42.736;23.346;2022-07-05T10:24:54;9.30;;;5.43;;
20623;SDS011;10471;42.736;23.346;2022-07-05T10:27:21;6.45;;;5.40;;
20623;SDS011;10471;42.736;23.346;2022-07-05T10:29:50;8.82;;;6.10;;
20623;SDS011;10471;42.736;23.346;2022-07-05T10:32:17;8.32;;;5.82;;
20623;SDS011;10471;42.736;23.346;2022-07-05T10:34:44;11.57;;;6.28;;
20623;SDS011;10471;42.736;23.346;2022-07-05T10:37:11;7.32;;;6.63;;
20623;SDS011;10471;42.736;23.346;2022-07-05T10:39:37;7.10;;;6.40;;
20623;SDS011;10471;42.736;23.346;2022-07-05T10:42:02;8.32;;;6.07;;
20623;SDS011;10471;42.736;23.346;2022-07-05T10:44:32;10.38;;;6.07;;
20623;SDS011;10471;42.736;23.346;2022-07-05T10:47:08;12.57;;;6.57;;
20623;SDS011;10471;42.736;23.346;2022-07-05T10:49:37;8.77;;;6.47;;
20623;SDS011;10471;42.736;23.346;2022-07-05T10:52:03;10.27;;;6.70;;
20623;SDS011;10471;42.736;23.346;2022-07-05T10:54:29;9.40;;;6.22;;
20623;SDS011;10471;42.736;23.346;2022-07-05T11:00:05;9.00;;;6.40;;
20623;SDS011;10471;42.736;23.346;2022-07-05T11:02:32;8.85;;;6.13;;
20623;SDS011;10471;42.736;23.346;2022-07-05T11:04:57;6.82;;;5.55;;
20623;SDS011;10471;42.736;23.346;2022-07-05T11:10:30;7.93;;;6.00;;
20623;SDS011;10471;42.736;23.346;2022-07-05T11:12:57;11.63;;;6.80;;
20623;SDS011;10471;42.736;23.346;2022-07-05T11:15:23;10.75;;;6.13;;
20623;SDS011;10471;42.736;23.346;2022-07-05T11:17:48;8.15;;;5.75;;
20623;SDS011;10471;42.736;23.346;2022-07-05T11:20:32;8.05;;;6.63;;
20623;SDS011;10471;42.736;23.346;2022-07-05T11:23:01;11.27;;;5.63;;
20623;SDS011;10471;42.736;23.346;2022-07-05T11:25:31;6.40;;;5.80;;
20623;SDS011;10471;42.736;23.346;2022-07-05T11:28:04;7.75;;;6.18;;
20623;SDS011;10471;42.736;23.346;2022-07-05T11:30:43;6.95;;;6.30;;
20623;SDS011;10471;42.736;23.346;2022-07-05T11:36:00;8.32;;;5.97;;
20623;SDS011;10471;42.736;23.346;2022-07-05T11:38:27;9.07;;;6.03;;
20623;SDS011;10471;42.736;23.346;2022-07-05T11:40:53;6.95;;;6.03;;
20623;SDS011;10471;42.736;23.346;2022-07-05T11:43:25;8.00;;;6.00;;
20623;SDS011;10471;42.736;23.346;2022-07-05T11:46:00;7.55;;;6.07;;
20623;SDS011;10471;42.736;23.346;2022-07-05T11:48:26;7.18;;;6.47;;
20623;SDS011;10471;42.736;23.346;2022-07-05T11:50:52;8.93;;;6.03;;
20623;SDS011;10471;42.736;23.346;2022-07-05T11:53:25;7.18;;;5.82;;
20623;SDS011;10471;42.736;23.346;2022-07-05T11:55:57;8.13;;;6.07;;
20623;SDS011;10471;42.736;23.346;2022-07-05T11:58:29;9.75;;;6.05;;
20623;SDS011;10471;42.736;23.346;2022-07-05T12:00:56;6.18;;;5.55;;
20623;SDS011;10471;42.736;23.346;2022-07-05T12:03:22;10.32;;;6.20;;
20623;SDS011;10471;42.736;23.346;2022-07-05T12:05:47;9.82;;;5.88;;
20623;SDS011;10471;42.736;23.346;2022-07-05T12:08:19;7.53;;;5.95;;
20623;SDS011;10471;42.736;23.346;2022-07-05T12:10:46;9.07;;;5.78;;
20623;SDS011;10471;42.736;23.346;2022-07-05T12:13:30;8.93;;;5.53;;
20623;SDS011;10471;42.736;23.346;2022-07-05T12:15:59;6.57;;;5.40;;
20623;SDS011;10471;42.736;23.346;2022-07-05T12:18:26;8.88;;;5.80;;
20623;SDS011;10471;42.736;23.346;2022-07-05T12:20:51;9.45;;;5.28;;
20623;SDS011;10471;42.736;23.346;2022-07-05T12:23:22;7.20;;;5.65;;
20623;SDS011;10471;42.736;23.346;2022-07-05T12:25:51;7.90;;;5.05;;
20623;SDS011;10471;42.736;23.346;2022-07-05T12:28:17;9.45;;;5.45;;
20623;SDS011;10471;42.736;23.346;2022-07-05T12:30:42;7.38;;;5.03;;
20623;SDS011;10471;42.736;23.346;2022-07-05T12:33:08;7.53;;;4.70;;
20623;SDS011;10471;42.736;23.346;2022-07-05T12:35:41;8.57;;;5.30;;
20623;SDS011;10471;42.736;23.346;2022-07-05T12:38:15;10.52;;;5.40;;
20623;SDS011;10471;42.736;23.346;2022-07-05T12:40:44;8.73;;;6.03;;
20623;SDS011;10471;42.736;23.346;2022-07-05T12:43:12;9.23;;;5.50;;
20623;SDS011;10471;42.736;23.346;2022-07-05T12:45:39;7.15;;;5.47;;
20623;SDS011;10471;42.736;23.346;2022-07-05T12:48:07;7.93;;;5.53;;
20623;SDS011;10471;42.736;23.346;2022-07-05T12:53:12;7.65;;;5.78;;
20623;SDS011;10471;42.736;23.346;2022-07-05T12:56:01;8.73;;;5.70;;
20623;SDS011;10471;42.736;23.346;2022-07-05T12:58:47;7.15;;;5.82;;
20623;SDS011;10471;42.736;23.346;2022-07-05T13:01:17;6.70;;;5.75;;
20623;SDS011;10471;42.736;23.346;2022-07-05T13:14:30;6.93;;;6.07;;
20623;SDS011;10471;42.736;23.346;2022-07-05T13:16:55;8.85;;;5.80;;
20623;SDS011;10471;42.736;23.346;2022-07-05T13:19:21;8.27;;;6.10;;
20623;SDS011;10471;42.736;23.346;2022-07-05T13:21:46;6.28;;;5.68;;
20623;SDS011;10471;42.736;23.346;2022-07-05T13:24:12;6.43;;;5.80;;
20623;SDS011;10471;42.736;23.346;2022-07-05T13:26:37;8.30;;;6.38;;
20623;SDS011;10471;42.736;23.346;2022-07-05T13:29:03;8.73;;;6.68;;
20623;SDS011;10471;42.736;23.346;2022-07-05T13:31:28;6.80;;;6.20;;
20623;SDS011;10471;42.736;23.346;2022-07-05T13:33:55;9.73;;;6.60;;
20623;SDS011;10471;42.736;23.346;2022-07-05T13:36:21;7.82;;;6.03;;
20623;SDS011;10471;42.736;23.346;2022-07-05T13:38:47;8.93;;;6.50;;
20623;SDS011;10471;42.736;23.346;2022-07-05T13:41:12;8.18;;;5.95;;
20623;SDS011;10471;42.736;23.346;2022-07-05T13:43:37;6.70;;;5.57;;
20623;SDS011;10471;42.736;23.346;2022-07-05T13:46:04;7.15;;;6.07;;
20623;SDS011;10471;42.736;23.346;2022-07-05T13:48:30;8.80;;;6.38;;
20623;SDS011;10471;42.736;23.346;2022-07-05T13:50:55;7.85;;;6.50;;
20623;SDS011;10471;42.736;23.346;2022-07-05T13:53:20;8.43;;;6.70;;
20623;SDS011;10471;42.736;23.346;2022-07-05T13:55:46;7.30;;;6.60;;
20623;SDS011;10471;42.736;23.346;2022-07-05T13:58:11;7.65;;;5.97;;
20623;SDS011;10471;42.736;23.346;2022-07-05T14:00:37;8.15;;;6.07;;
20623;SDS011;10471;42.736;23.346;2022-07-05T14:03:02;9.13;;;6.18;;
20623;SDS011;10471;42.736;23.346;2022-07-05T14:05:28;9.55;;;6.25;;
20623;SDS011;10471;42.736;23.346;2022-07-05T14:07:53;8.05;;;6.38;;
20623;SDS011;10471;42.736;23.346;2022-07-05T14:10:19;10.57;;;7.03;;
20623;SDS011;10471;42.736;23.346;2022-07-05T14:12:44;7.55;;;6.43;;
20623;SDS011;10471;42.736;23.346;2022-07-05T14:15:10;8.13;;;6.50;;
20623;SDS011;10471;42.736;23.346;2022-07-05T14:17:35;8.20;;;6.18;;
20623;SDS011;10471;42.736;23.346;2022-07-05T14:20:01;11.40;;;8.73;;
20623;SDS011;10471;42.736;23.346;2022-07-05T14:22:26;12.23;;;10.18;;
20623;SDS011;10471;42.736;23.346;2022-07-05T14:24:51;19.02;;;17.13;;
20623;SDS011;10471;42.736;23.346;2022-07-05T14:27:17;14.15;;;10.73;;
20623;SDS011;10471;42.736;23.346;2022-07-05T14:29:42;11.10;;;9.15;;
20623;SDS011;10471;42.736;23.346;2022-07-05T14:32:08;8.63;;;7.47;;
20623;SDS011;10471;42.736;23.346;2022-07-05T14:34:33;8.23;;;6.93;;
20623;SDS011;10471;42.736;23.346;2022-07-05T14:36:59;9.43;;;7.10;;
20623;SDS011;10471;42.736;23.346;2022-07-05T14:39:24;10.10;;;6.80;;
20623;SDS011;10471;42.736;23.346;2022-07-05T14:41:50;7.13;;;6.38;;
20623;SDS011;10471;42.736;23.346;2022-07-05T14:44:16;7.25;;;6.50;;
20623;SDS011;10471;42.736;23.346;2022-07-05T14:46:42;9.35;;;6.32;;
20623;SDS011;10471;42.736;23.346;2022-07-05T14:49:07;7.00;;;6.30;;
20623;SDS011;10471;42.736;23.346;2022-07-05T14:51:33;8.30;;;6.13;;
20623;SDS011;10471;42.736;23.346;2022-07-05T14:53:58;10.20;;;6.68;;
20623;SDS011;10471;42.736;23.346;2022-07-05T14:56:23;11.32;;;6.63;;
20623;SDS011;10471;42.736;23.346;2022-07-05T14:58:49;8.82;;;6.40;;
20623;SDS011;10471;42.736;23.346;2022-07-05T15:01:14;7.82;;;6.25;;